createdAt,value
2018-08-03T00:00:33.805Z,4.73
2018-08-03T00:03:04.239Z,4.90
2018-08-03T00:05:35.401Z,5.27
2018-08-03T00:08:05.786Z,4.67
2018-08-03T00:10:36.223Z,4.67
2018-08-03T00:13:06.606Z,5.10
2018-08-03T00:15:38.025Z,4.50
2018-08-03T00:18:09.205Z,5.03
2018-08-03T00:20:42.679Z,4.90
2018-08-03T00:23:13.061Z,5.10
2018-08-03T00:25:43.471Z,4.90
2018-08-03T00:28:15.903Z,5.40
2018-08-03T00:30:46.285Z,4.67
2018-08-03T00:33:16.715Z,4.40
2018-08-03T00:35:47.109Z,4.97
2018-08-03T00:38:17.489Z,4.40
2018-08-03T00:40:48.854Z,5.20
2018-08-03T00:43:20.020Z,4.50
2018-08-03T00:45:50.591Z,5.00
2018-08-03T00:48:21.034Z,4.90
2018-08-03T00:50:51.406Z,4.60
2018-08-03T00:53:21.802Z,4.23
2018-08-03T00:55:52.236Z,4.27
2018-08-03T00:58:23.397Z,5.40
2018-08-03T01:00:53.784Z,5.23
2018-08-03T01:03:24.220Z,4.63
2018-08-03T01:05:54.610Z,5.23
2018-08-03T01:08:27.060Z,4.90
2018-08-03T01:10:57.480Z,4.77
2018-08-03T01:13:28.579Z,4.87
2018-08-03T01:15:58.903Z,5.43
2018-08-03T01:18:29.331Z,4.83
2018-08-03T01:20:59.716Z,5.30
2018-08-03T01:23:30.098Z,4.80
2018-08-03T01:26:00.527Z,5.03
2018-08-03T01:28:31.687Z,4.97
2018-08-03T01:31:02.070Z,4.60
2018-08-03T01:33:32.587Z,4.67
2018-08-03T01:36:06.042Z,5.17
2018-08-03T01:38:36.363Z,4.50
2018-08-03T01:41:06.776Z,4.90
2018-08-03T01:43:37.198Z,5.40
2018-08-03T01:46:07.594Z,5.10
2018-08-03T01:48:38.017Z,5.17
2018-08-03T01:51:08.423Z,4.90
2018-08-03T01:53:38.793Z,4.80
2018-08-03T01:56:09.856Z,4.70
2018-08-03T01:58:40.239Z,5.27
2018-08-03T02:01:10.639Z,5.17
2018-08-03T02:03:41.062Z,5.07
2018-08-03T02:06:11.465Z,4.70
2018-08-03T02:08:42.623Z,4.53
2018-08-03T02:11:13.038Z,4.67
2018-08-03T02:13:43.416Z,4.23
2018-08-03T02:16:19.978Z,4.33
2018-08-03T02:18:50.437Z,3.83
2018-08-03T02:21:21.465Z,4.97
2018-08-03T02:23:51.893Z,4.50
2018-08-03T02:26:22.286Z,4.33
2018-08-03T02:28:52.672Z,4.20
2018-08-03T02:31:23.088Z,4.67
2018-08-03T02:33:53.411Z,4.47
2018-08-03T02:36:23.795Z,4.40
2018-08-03T02:38:54.221Z,4.70
2018-08-03T02:41:24.618Z,4.47
2018-08-03T02:43:55.011Z,4.67
2018-08-03T02:46:25.364Z,4.20
2018-08-03T02:48:55.742Z,4.40
2018-08-03T02:51:30.172Z,4.80
2018-08-03T02:54:00.606Z,4.37
2018-08-03T02:56:31.006Z,4.50
2018-08-03T02:59:01.395Z,4.27
2018-08-03T03:01:31.835Z,4.43
2018-08-03T03:04:02.160Z,4.13
2018-08-03T03:06:32.551Z,4.43
2018-08-03T03:09:02.974Z,4.70
2018-08-03T03:11:33.380Z,4.63
2018-08-03T03:14:05.826Z,4.63
2018-08-03T03:16:36.182Z,4.83
2018-08-03T03:19:12.897Z,4.70
2018-08-03T03:21:43.317Z,4.90
2018-08-03T03:24:13.715Z,4.20
2018-08-03T03:26:48.196Z,4.07
2018-08-03T03:32:05.851Z,4.50
2018-08-03T03:34:36.257Z,4.60
2018-08-03T03:37:06.572Z,4.50
2018-08-03T03:39:36.978Z,4.40
2018-08-03T03:42:07.411Z,4.50
2018-08-03T03:44:37.807Z,4.27
2018-08-03T03:47:08.206Z,4.40
2018-08-03T03:49:39.405Z,4.50
2018-08-03T03:52:09.744Z,4.30
2018-08-03T03:54:40.066Z,4.43
2018-08-03T03:57:10.482Z,4.50
2018-08-03T03:59:40.873Z,4.90
2018-08-03T04:02:11.258Z,4.43
2018-08-03T04:04:42.453Z,4.50
2018-08-03T04:07:17.969Z,4.37
2018-08-03T04:09:49.162Z,4.20
2018-08-03T04:12:24.812Z,4.43
2018-08-03T04:14:55.096Z,4.83
2018-08-03T04:17:25.490Z,4.67
2018-08-03T04:19:55.898Z,5.67
2018-08-03T04:22:26.247Z,5.57
2018-08-03T04:24:56.688Z,6.40
2018-08-03T04:27:27.082Z,11.20
2018-08-03T04:29:57.511Z,11.17
2018-08-03T04:32:27.908Z,13.93
2018-08-03T04:35:01.420Z,16.27
2018-08-03T04:37:39.118Z,16.97
2018-08-03T04:40:14.651Z,15.70
2018-08-03T04:42:51.179Z,16.27
2018-08-03T04:45:22.350Z,14.23
2018-08-03T04:47:52.818Z,12.77
2018-08-03T04:50:23.144Z,12.53
2018-08-03T04:52:53.571Z,11.37
2018-08-03T04:55:23.959Z,9.07
2018-08-03T04:57:54.284Z,9.10
2018-08-03T05:00:24.706Z,8.17
2018-08-03T05:02:55.101Z,8.00
2018-08-03T05:05:25.489Z,7.33
2018-08-03T05:07:57.980Z,6.47
2018-08-03T05:10:28.379Z,5.60
2018-08-03T05:12:58.710Z,5.43
2018-08-03T05:15:34.350Z,5.00
2018-08-03T05:18:04.628Z,5.03
2018-08-03T05:20:35.014Z,5.30
2018-08-03T05:23:05.421Z,5.10
2018-08-03T05:25:35.819Z,4.97
2018-08-03T05:28:06.212Z,4.93
2018-08-03T05:30:36.619Z,5.00
2018-08-03T05:33:07.703Z,4.97
2018-08-03T05:35:40.139Z,4.53
2018-08-03T05:38:10.558Z,5.43
2018-08-03T05:40:44.039Z,5.07
2018-08-03T05:43:14.434Z,5.53
2018-08-03T05:45:45.614Z,5.37
2018-08-03T05:48:17.033Z,4.97
2018-08-03T05:50:48.181Z,5.10
2018-08-03T05:53:19.539Z,4.80
2018-08-03T05:55:50.123Z,4.80
2018-08-03T05:58:20.528Z,5.03
2018-08-03T06:00:51.990Z,5.47
2018-08-03T06:03:22.396Z,5.10
2018-08-03T06:05:52.712Z,5.27
2018-08-03T06:08:23.133Z,4.60
2018-08-03T06:10:53.524Z,5.40
2018-08-03T06:13:25.969Z,5.37
2018-08-03T06:15:56.398Z,4.90
2018-08-03T06:18:33.956Z,5.80
2018-08-03T06:21:04.379Z,5.50
2018-08-03T06:23:35.536Z,4.97
2018-08-03T06:26:05.914Z,5.10
2018-08-03T06:28:36.459Z,5.30
2018-08-03T06:31:06.743Z,5.87
2018-08-03T06:33:44.492Z,5.50
2018-08-03T06:36:14.881Z,5.60
2018-08-03T06:38:45.284Z,5.83
2018-08-03T06:41:15.706Z,5.03
2018-08-03T06:43:46.085Z,5.17
2018-08-03T06:46:16.471Z,5.27
2018-08-03T06:48:54.199Z,4.87
2018-08-03T06:51:24.587Z,5.20
2018-08-03T06:53:57.033Z,5.33
2018-08-03T06:56:27.458Z,4.90
2018-08-03T06:58:58.630Z,5.20
2018-08-03T07:01:29.022Z,5.10
2018-08-03T07:04:00.226Z,4.97
2018-08-03T07:06:31.660Z,4.80
2018-08-03T07:09:01.997Z,5.20
2018-08-03T07:11:32.431Z,4.80
2018-08-03T07:14:21.920Z,5.07
2018-08-03T07:16:52.336Z,4.33
2018-08-03T07:19:43.129Z,5.03
2018-08-03T07:22:15.586Z,5.43
2018-08-03T07:24:45.913Z,5.70
2018-08-03T07:27:16.318Z,5.27
2018-08-03T07:29:47.443Z,5.43
2018-08-03T07:32:17.839Z,4.70
2018-08-03T07:34:48.242Z,5.30
2018-08-03T07:37:20.711Z,4.77
2018-08-03T07:39:51.035Z,5.20
2018-08-03T07:42:21.434Z,4.77
2018-08-03T07:44:51.910Z,4.80
2018-08-03T07:47:22.253Z,4.90
2018-08-03T07:49:52.660Z,5.40
2018-08-03T07:55:17.190Z,5.20
2018-08-03T07:57:48.357Z,5.20
2018-08-03T08:00:18.751Z,5.13
2018-08-03T08:02:54.283Z,5.67
2018-08-03T08:05:28.782Z,5.80
2018-08-03T08:07:59.188Z,5.50
2018-08-03T08:10:30.293Z,5.33
2018-08-03T08:13:00.683Z,5.60
2018-08-03T08:15:31.126Z,5.40
2018-08-03T08:18:01.489Z,5.00
2018-08-03T08:20:31.892Z,4.70
2018-08-03T08:23:22.443Z,5.07
2018-08-03T08:25:53.589Z,5.70
2018-08-03T08:28:23.984Z,5.10
2018-08-03T08:30:54.417Z,5.23
2018-08-03T08:33:24.808Z,4.90
2018-08-03T08:35:57.271Z,5.23
2018-08-03T08:38:27.676Z,5.37
2018-08-03T08:40:58.839Z,5.17
2018-08-03T08:43:29.327Z,5.13
2018-08-03T08:46:00.435Z,5.33
2018-08-03T08:48:30.837Z,5.37
2018-08-03T08:51:01.231Z,5.50
2018-08-03T08:53:31.647Z,5.57
2018-08-03T08:56:02.040Z,5.03
2018-08-03T08:58:32.428Z,5.20
2018-08-03T09:01:03.653Z,6.10
2018-08-03T09:03:53.375Z,5.30
2018-08-03T09:06:23.793Z,6.50
2018-08-03T09:08:54.170Z,5.50
2018-08-03T09:11:25.332Z,5.77
2018-08-03T09:13:55.746Z,5.53
2018-08-03T09:16:26.133Z,5.47
2018-08-03T09:18:56.528Z,6.20
2018-08-03T09:21:26.879Z,5.83
2018-08-03T09:23:57.200Z,5.60
2018-08-03T09:26:27.596Z,5.30
2018-08-03T09:28:58.778Z,5.60
2018-08-03T09:31:29.185Z,5.27
2018-08-03T09:34:00.355Z,5.90
2018-08-03T09:36:33.850Z,5.73
2018-08-03T09:39:04.230Z,5.87
2018-08-03T09:41:34.629Z,5.73
2018-08-03T09:44:05.042Z,5.80
2018-08-03T09:46:54.808Z,5.47
2018-08-03T09:49:25.164Z,5.63
2018-08-03T09:51:56.600Z,5.90
2018-08-03T09:54:31.356Z,5.90
2018-08-03T09:57:02.456Z,5.30
2018-08-03T09:59:32.838Z,5.63
2018-08-03T10:02:03.194Z,5.33
2018-08-03T10:04:33.595Z,5.63
2018-08-03T10:07:03.989Z,5.27
2018-08-03T10:09:34.421Z,5.30
2018-08-03T10:12:04.828Z,5.63
2018-08-03T10:14:37.216Z,5.77
2018-08-03T10:17:07.643Z,5.50
2018-08-03T10:19:44.131Z,5.10
2018-08-03T10:22:13.442Z,5.83
2018-08-03T10:24:45.880Z,5.27
2018-08-03T10:27:16.276Z,5.17
2018-08-03T10:29:46.749Z,5.20
2018-08-03T10:32:17.094Z,5.70
2018-08-03T10:34:47.482Z,5.53
2018-08-03T10:37:21.988Z,5.47
2018-08-03T10:39:52.386Z,5.40
2018-08-03T10:42:23.577Z,5.17
2018-08-03T10:44:58.084Z,5.57
2018-08-03T10:47:28.482Z,5.50
2018-08-03T10:49:59.640Z,5.37
2018-08-03T10:52:30.824Z,5.23
2018-08-03T10:55:02.265Z,5.50
2018-08-03T10:57:38.576Z,4.80
2018-08-03T11:00:08.897Z,5.20
2018-08-03T11:02:40.254Z,5.40
2018-08-03T11:05:10.663Z,5.13
2018-08-03T11:07:41.055Z,5.57
2018-08-03T11:10:15.536Z,5.40
2018-08-03T11:12:46.723Z,5.07
2018-08-03T11:15:17.106Z,5.20
2018-08-03T11:17:48.527Z,5.33
2018-08-03T11:20:18.962Z,4.87
2018-08-03T11:22:49.367Z,4.87
2018-08-03T11:25:24.811Z,5.90
2018-08-03T11:27:55.869Z,5.27
2018-08-03T11:30:26.273Z,5.30
2018-08-03T11:33:02.841Z,4.50
2018-08-03T11:35:35.290Z,5.13
2018-08-03T11:38:05.682Z,4.70
2018-08-03T11:40:36.114Z,5.17
2018-08-03T11:43:06.435Z,5.20
2018-08-03T11:45:36.833Z,5.00
2018-08-03T11:48:07.224Z,4.73
2018-08-03T11:50:37.804Z,5.33
2018-08-03T11:53:08.206Z,5.07
2018-08-03T11:55:38.682Z,5.20
2018-08-03T11:58:09.076Z,5.20
2018-08-03T12:00:41.511Z,5.37
2018-08-03T12:03:11.921Z,5.30
2018-08-03T12:05:43.102Z,5.20
2018-08-03T12:08:13.427Z,5.20
2018-08-03T12:10:43.843Z,5.30
2018-08-03T12:13:14.231Z,5.20
2018-08-03T12:18:40.511Z,5.47
2018-08-03T12:21:10.900Z,5.23
2018-08-03T12:23:41.294Z,5.50
2018-08-03T12:26:11.690Z,5.80
2018-08-03T12:28:42.083Z,5.37
2018-08-03T12:31:12.476Z,5.20
2018-08-03T12:33:44.923Z,5.43
2018-08-03T12:36:15.332Z,5.47
2018-08-03T12:38:47.140Z,5.17
2018-08-03T12:41:19.599Z,5.43
2018-08-03T12:43:50.187Z,5.80
2018-08-03T12:46:20.566Z,5.07
2018-08-03T12:48:50.980Z,5.27
2018-08-03T12:51:21.388Z,5.30
2018-08-03T12:53:52.558Z,4.93
2018-08-03T12:56:23.658Z,5.03
2018-08-03T12:58:54.820Z,5.67
2018-08-03T13:01:25.987Z,5.07
2018-08-03T13:03:56.344Z,4.93
2018-08-03T13:06:27.386Z,5.37
2018-08-03T13:08:57.768Z,5.20
2018-08-03T13:11:28.195Z,5.17
2018-08-03T13:13:58.587Z,5.17
2018-08-03T13:16:28.993Z,5.40
2018-08-03T13:18:59.402Z,5.07
2018-08-03T13:21:32.030Z,5.00
2018-08-03T13:24:03.185Z,5.47
2018-08-03T13:26:33.577Z,5.50
2018-08-03T13:29:04.000Z,5.83
2018-08-03T13:31:34.533Z,5.50
2018-08-03T13:34:04.968Z,5.30
2018-08-03T13:36:35.549Z,5.00
2018-08-03T13:39:06.009Z,4.93
2018-08-03T13:41:36.346Z,5.50
2018-08-03T13:44:06.745Z,5.23
2018-08-03T13:46:39.173Z,4.93
2018-08-03T13:49:10.300Z,5.40
2018-08-03T13:51:40.670Z,5.20
2018-08-03T13:54:11.078Z,5.33
2018-08-03T13:56:42.280Z,4.93
2018-08-03T13:59:17.713Z,5.17
2018-08-03T14:01:55.442Z,5.37
2018-08-03T14:04:26.860Z,5.07
2018-08-03T14:07:02.397Z,5.10
2018-08-03T14:09:34.849Z,4.90
2018-08-03T14:12:05.942Z,5.33
2018-08-03T14:14:36.297Z,5.33
2018-08-03T14:17:07.446Z,5.33
2018-08-03T14:19:38.605Z,5.50
2018-08-03T14:22:09.859Z,5.77
2018-08-03T14:24:59.278Z,5.80
2018-08-03T14:27:29.703Z,5.67
2018-08-03T14:30:02.093Z,5.40
2018-08-03T14:32:52.886Z,5.53
2018-08-03T14:35:23.291Z,5.57
2018-08-03T14:37:53.671Z,6.07
2018-08-03T14:40:24.850Z,5.30
2018-08-03T14:42:55.262Z,5.07
2018-08-03T14:45:25.670Z,5.30
2018-08-03T14:47:56.871Z,5.50
2018-08-03T14:50:27.277Z,5.40
2018-08-03T14:52:58.713Z,5.50
2018-08-03T14:55:29.139Z,5.80
2018-08-03T14:57:59.521Z,5.30
2018-08-03T15:00:29.905Z,5.53
2018-08-03T15:03:00.327Z,5.27
2018-08-03T15:05:30.721Z,5.07
2018-08-03T15:08:01.928Z,5.83
2018-08-03T15:10:32.288Z,5.70
2018-08-03T15:13:02.667Z,5.60
2018-08-03T15:15:33.033Z,5.27
2018-08-03T15:18:03.472Z,5.53
2018-08-03T15:20:33.864Z,5.80
2018-08-03T15:23:05.287Z,5.20
2018-08-03T15:25:35.713Z,5.40
2018-08-03T15:28:06.098Z,5.17
2018-08-03T15:30:36.478Z,5.40
2018-08-03T15:33:09.967Z,5.80
2018-08-03T15:35:40.351Z,5.57
2018-08-03T15:38:10.721Z,5.23
2018-08-03T15:40:41.149Z,5.73
2018-08-03T15:43:11.560Z,5.47
2018-08-03T15:45:41.958Z,5.43
2018-08-03T15:48:12.382Z,5.33
2018-08-03T15:50:42.714Z,5.57
2018-08-03T15:53:13.880Z,5.37
2018-08-03T15:55:44.305Z,6.40
2018-08-03T15:58:14.708Z,4.93
2018-08-03T16:00:45.086Z,5.60
2018-08-03T16:03:18.584Z,5.80
2018-08-03T16:05:48.968Z,5.40
2018-08-03T16:08:19.370Z,5.00
2018-08-03T16:10:49.784Z,5.07
2018-08-03T16:13:20.168Z,5.27
2018-08-03T16:15:50.568Z,5.20
2018-08-03T16:18:21.016Z,4.80
2018-08-03T16:20:52.186Z,5.37
2018-08-03T16:23:22.578Z,4.97
2018-08-03T16:25:53.757Z,5.67
2018-08-03T16:31:11.985Z,5.40
2018-08-03T16:33:43.126Z,5.37
2018-08-03T16:36:14.270Z,5.53
2018-08-03T16:38:46.129Z,5.50
2018-08-03T16:41:16.518Z,5.53
2018-08-03T16:43:48.958Z,5.90
2018-08-03T16:46:19.374Z,5.80
2018-08-03T16:48:50.561Z,5.70
2018-08-03T16:51:40.341Z,5.50
2018-08-03T16:54:11.750Z,5.07
2018-08-03T16:56:42.159Z,5.83
2018-08-03T16:59:13.334Z,5.80
2018-08-03T17:01:43.735Z,5.90
2018-08-03T17:04:14.148Z,5.50
2018-08-03T17:06:44.577Z,5.30
2018-08-03T17:09:14.972Z,5.03
2018-08-03T17:11:50.506Z,5.17
2018-08-03T17:14:20.913Z,5.53
2018-08-03T17:16:51.316Z,5.10
2018-08-03T17:19:23.141Z,5.33
2018-08-03T17:21:53.526Z,5.00
2018-08-03T17:24:23.923Z,5.43
2018-08-03T17:26:54.339Z,5.30
2018-08-03T17:29:25.682Z,5.30
2018-08-03T17:31:56.103Z,5.23
2018-08-03T17:34:26.490Z,5.13
2018-08-03T17:36:56.917Z,5.20
2018-08-03T17:39:27.258Z,5.03
2018-08-03T17:42:01.697Z,4.80
2018-08-03T17:44:32.080Z,5.23
2018-08-03T17:47:02.479Z,5.10
2018-08-03T17:49:32.874Z,4.93
2018-08-03T17:52:10.562Z,5.50
2018-08-03T17:54:40.970Z,4.77
2018-08-03T17:57:11.360Z,5.30
2018-08-03T17:59:43.853Z,5.07
2018-08-03T18:02:13.707Z,5.20
2018-08-03T18:04:51.338Z,5.30
2018-08-03T18:07:21.767Z,5.00
2018-08-03T18:09:54.207Z,5.10
2018-08-03T18:12:44.733Z,4.90
2018-08-03T18:15:15.114Z,5.13
2018-08-03T18:17:45.510Z,4.60
2018-08-03T18:20:16.678Z,4.77
2018-08-03T18:22:47.080Z,4.50
2018-08-03T18:25:18.241Z,4.60
2018-08-03T18:27:48.663Z,4.63
2018-08-03T18:30:19.813Z,4.60
2018-08-03T18:32:50.197Z,4.93
2018-08-03T18:35:20.609Z,5.10
2018-08-03T18:37:58.300Z,4.83
2018-08-03T18:40:32.818Z,4.80
2018-08-03T18:43:03.897Z,4.83
2018-08-03T18:45:34.291Z,4.73
2018-08-03T18:48:04.710Z,4.63
2018-08-03T18:50:35.108Z,4.77
2018-08-03T18:53:06.260Z,4.60
2018-08-03T18:55:36.674Z,4.83
2018-08-03T18:58:07.085Z,4.57
2018-08-03T19:00:39.277Z,4.57
2018-08-03T19:03:09.695Z,4.90
2018-08-03T19:05:40.099Z,4.63
2018-08-03T19:08:10.475Z,5.37
2018-08-03T19:10:40.887Z,4.67
2018-08-03T19:16:07.725Z,4.70
2018-08-03T19:18:40.149Z,4.90
2018-08-03T19:21:16.697Z,5.50
2018-08-03T19:23:47.098Z,5.03
2018-08-03T19:26:17.489Z,5.03
2018-08-03T19:28:51.986Z,5.30
2018-08-03T19:31:22.297Z,4.50
2018-08-03T19:33:52.696Z,4.40
2018-08-03T19:36:25.681Z,5.30
2018-08-03T19:38:56.069Z,4.57
2018-08-03T19:41:26.472Z,4.23
2018-08-03T19:43:56.878Z,4.27
2018-08-03T19:46:28.036Z,4.30
2018-08-03T19:48:58.432Z,4.37
2018-08-03T19:51:28.866Z,3.83
2018-08-03T19:53:59.262Z,4.40
2018-08-03T19:56:29.590Z,4.30
2018-08-03T19:59:00.165Z,4.27
2018-08-03T20:01:37.549Z,4.07
2018-08-03T20:04:08.755Z,4.20
2018-08-03T20:06:39.141Z,4.30
2018-08-03T20:09:09.542Z,4.00
2018-08-03T20:11:40.724Z,4.13
2018-08-03T20:14:13.731Z,3.77
2018-08-03T20:16:44.134Z,4.13
2018-08-03T20:19:14.555Z,4.07
2018-08-03T20:21:45.895Z,3.80
2018-08-03T20:24:16.284Z,4.20
2018-08-03T20:26:46.632Z,3.83
2018-08-03T20:29:17.783Z,4.07
2018-08-03T20:31:48.182Z,4.20
2018-08-03T20:34:18.582Z,4.17
2018-08-03T20:36:51.039Z,4.00
2018-08-03T20:39:21.415Z,3.93
2018-08-03T20:41:51.843Z,4.40
2018-08-03T20:44:22.233Z,3.90
2018-08-03T20:46:58.789Z,4.00
2018-08-03T20:49:29.181Z,4.03
2018-08-03T20:52:02.727Z,4.17
2018-08-03T20:54:33.111Z,4.40
2018-08-03T20:57:03.519Z,3.97
2018-08-03T20:59:33.882Z,4.10
2018-08-03T21:02:04.271Z,4.20
2018-08-03T21:04:36.704Z,4.37
2018-08-03T21:07:07.128Z,4.33
2018-08-03T21:09:38.534Z,3.80
2018-08-03T21:12:08.947Z,4.10
2018-08-03T21:14:39.365Z,4.00
2018-08-03T21:17:10.403Z,4.00
2018-08-03T21:19:40.726Z,4.23
2018-08-03T21:22:11.132Z,3.73
2018-08-03T21:24:41.536Z,4.00
2018-08-03T21:27:11.924Z,4.07
2018-08-03T21:29:44.377Z,3.93
2018-08-03T21:32:12.695Z,4.10
2018-08-03T21:34:43.103Z,4.07
2018-08-03T21:37:13.455Z,4.20
2018-08-03T21:39:44.698Z,4.10
2018-08-03T21:42:15.089Z,3.60
2018-08-03T21:44:45.527Z,4.20
2018-08-03T21:47:15.925Z,3.17
2018-08-03T21:50:06.501Z,4.10
2018-08-03T21:52:36.883Z,4.37
2018-08-03T21:55:07.288Z,4.10
2018-08-03T21:57:37.720Z,3.60
2018-08-03T22:00:08.065Z,3.83
2018-08-03T22:02:38.450Z,3.83
2018-08-03T22:05:15.059Z,3.70
2018-08-03T22:07:45.401Z,3.70
2018-08-03T22:10:16.558Z,3.57
2018-08-03T22:12:46.904Z,3.13
2018-08-03T22:15:17.308Z,3.30
2018-08-03T22:17:48.470Z,3.00
2018-08-03T22:20:18.898Z,3.60
2018-08-03T22:22:49.302Z,3.53
2018-08-03T22:25:20.469Z,3.70
2018-08-03T22:27:50.894Z,3.37
2018-08-03T22:30:21.297Z,3.63
2018-08-03T22:32:52.529Z,4.00
2018-08-03T22:35:22.824Z,3.40
2018-08-03T22:38:12.324Z,3.40
2018-08-03T22:40:42.753Z,3.57
2018-08-03T22:43:13.148Z,3.20
2018-08-03T22:46:05.001Z,3.67
2018-08-03T22:48:35.402Z,3.00
2018-08-03T22:51:25.213Z,3.60
2018-08-03T22:53:55.610Z,3.60
2018-08-03T22:56:44.381Z,3.00
2018-08-03T22:59:15.744Z,3.80
2018-08-03T23:01:46.142Z,3.13
2018-08-03T23:04:16.570Z,3.63
2018-08-03T23:06:46.964Z,3.23
2018-08-03T23:09:17.303Z,3.70
2018-08-03T23:11:47.730Z,3.53
2018-08-03T23:14:18.140Z,3.40
2018-08-03T23:16:48.541Z,3.17
2018-08-03T23:19:18.974Z,3.40
2018-08-03T23:21:49.356Z,3.40
2018-08-03T23:24:24.866Z,3.17
2018-08-03T23:26:55.284Z,3.57
2018-08-03T23:32:14.456Z,3.10
2018-08-03T23:34:44.852Z,3.23
2018-08-03T23:37:15.257Z,3.80
2018-08-03T23:39:47.720Z,3.27
2018-08-03T23:42:18.109Z,3.37
2018-08-03T23:44:48.509Z,3.20
2018-08-03T23:47:18.956Z,3.60
2018-08-03T23:49:54.416Z,3.23
2018-08-03T23:52:25.613Z,2.90
2018-08-03T23:55:02.139Z,3.13
2018-08-03T23:57:32.640Z,3.50
